sensor_id;sensor_type;location;lat;lon;timestamp;pressure;altitude;pressure_sealevel;temperature;humidity
64141;BME280;50436;50.618;7.932;2024-01-10T00:02:05;97480.66;;;-6.66;64.42
64141;BME280;50436;50.618;7.932;2024-01-10T00:04:51;97475.59;;;-6.68;63.92
64141;BME280;50436;50.618;7.932;2024-01-10T00:07:37;97482.91;;;-6.62;64.65
64141;BME280;50436;50.618;7.932;2024-01-10T00:10:23;97472.16;;;-6.68;65.13
64141;BME280;50436;50.618;7.932;2024-01-10T00:13:09;97478.66;;;-6.63;64.63
64141;BME280;50436;50.618;7.932;2024-01-10T00:15:55;97478.41;;;-6.71;66.21
64141;BME280;50436;50.618;7.932;2024-01-10T00:18:41;97469.56;;;-6.68;66.24
64141;BME280;50436;50.618;7.932;2024-01-10T00:21:27;97463.84;;;-6.62;64.96
64141;BME280;50436;50.618;7.932;2024-01-10T00:24:13;97469.88;;;-6.62;65.16
64141;BME280;50436;50.618;7.932;2024-01-10T00:26:59;97467.06;;;-6.59;64.09
64141;BME280;50436;50.618;7.932;2024-01-10T00:29:45;97458.31;;;-6.58;63.09
64141;BME280;50436;50.618;7.932;2024-01-10T00:32:31;97453.81;;;-6.56;62.72
64141;BME280;50436;50.618;7.932;2024-01-10T00:35:16;97443.16;;;-6.53;61.82
64141;BME280;50436;50.618;7.932;2024-01-10T00:38:03;97440.78;;;-6.56;61.90
64141;BME280;50436;50.618;7.932;2024-01-10T00:40:49;97424.94;;;-6.75;61.78
64141;BME280;50436;50.618;7.932;2024-01-10T00:43:34;97441.00;;;-6.70;62.57
64141;BME280;50436;50.618;7.932;2024-01-10T00:46:20;97448.72;;;-6.68;61.26
64141;BME280;50436;50.618;7.932;2024-01-10T00:49:06;97437.13;;;-6.64;60.51
64141;BME280;50436;50.618;7.932;2024-01-10T00:51:52;97429.91;;;-6.61;59.94
64141;BME280;50436;50.618;7.932;2024-01-10T00:54:38;97421.97;;;-6.59;59.13
64141;BME280;50436;50.618;7.932;2024-01-10T00:57:24;97429.53;;;-6.56;58.89
64141;BME280;50436;50.618;7.932;2024-01-10T01:00:10;97426.47;;;-6.50;58.51
64141;BME280;50436;50.618;7.932;2024-01-10T01:02:56;97407.16;;;-6.48;56.14
64141;BME280;50436;50.618;7.932;2024-01-10T01:05:42;97426.56;;;-6.40;55.75
64141;BME280;50436;50.618;7.932;2024-01-10T01:08:28;97414.50;;;-6.41;54.77
64141;BME280;50436;50.618;7.932;2024-01-10T01:11:14;97420.44;;;-6.51;54.55
64141;BME280;50436;50.618;7.932;2024-01-10T01:14:00;97423.75;;;-6.49;53.78
64141;BME280;50436;50.618;7.932;2024-01-10T01:16:46;97422.91;;;-6.49;53.85
64141;BME280;50436;50.618;7.932;2024-01-10T01:19:31;97413.69;;;-6.53;53.79
64141;BME280;50436;50.618;7.932;2024-01-10T01:22:17;97405.75;;;-6.52;53.52
64141;BME280;50436;50.618;7.932;2024-01-10T01:25:03;97413.31;;;-6.49;54.26
64141;BME280;50436;50.618;7.932;2024-01-10T01:27:50;97412.38;;;-6.48;53.68
64141;BME280;50436;50.618;7.932;2024-01-10T01:30:35;97408.81;;;-6.47;52.89
64141;BME280;50436;50.618;7.932;2024-01-10T01:33:22;97401.25;;;-6.50;52.72
64141;BME280;50436;50.618;7.932;2024-01-10T01:36:08;97420.66;;;-6.42;52.72
64141;BME280;50436;50.618;7.932;2024-01-10T01:38:53;97412.25;;;-6.46;52.72
64141;BME280;50436;50.618;7.932;2024-01-10T01:41:40;97405.38;;;-6.47;52.88
64141;BME280;50436;50.618;7.932;2024-01-10T01:44:25;97404.69;;;-6.49;53.83
64141;BME280;50436;50.618;7.932;2024-01-10T01:47:11;97406.94;;;-6.44;52.78
64141;BME280;50436;50.618;7.932;2024-01-10T01:49:57;97414.75;;;-6.44;52.93
64141;BME280;50436;50.618;7.932;2024-01-10T01:52:43;97405.97;;;-6.55;53.50
64141;BME280;50436;50.618;7.932;2024-01-10T01:55:30;97419.94;;;-6.56;54.51
64141;BME280;50436;50.618;7.932;2024-01-10T01:58:16;97427.19;;;-6.59;54.75
64141;BME280;50436;50.618;7.932;2024-01-10T02:01:03;97426.34;;;-6.60;56.28
64141;BME280;50436;50.618;7.932;2024-01-10T02:03:49;97423.50;;;-6.68;57.45
64141;BME280;50436;50.618;7.932;2024-01-10T02:06:35;97426.13;;;-6.68;58.63
64141;BME280;50436;50.618;7.932;2024-01-10T02:09:21;97418.06;;;-6.76;59.43
64141;BME280;50436;50.618;7.932;2024-01-10T02:12:07;97419.25;;;-6.80;60.07
64141;BME280;50436;50.618;7.932;2024-01-10T02:14:53;97412.00;;;-6.88;61.67
64141;BME280;50436;50.618;7.932;2024-01-10T02:17:39;97414.28;;;-6.83;62.36
64141;BME280;50436;50.618;7.932;2024-01-10T02:20:24;97415.94;;;-6.82;63.97
64141;BME280;50436;50.618;7.932;2024-01-10T02:23:10;97409.91;;;-6.83;63.71
64141;BME280;50436;50.618;7.932;2024-01-10T02:25:56;97407.41;;;-6.84;64.57
64141;BME280;50436;50.618;7.932;2024-01-10T02:28:42;97400.19;;;-6.81;64.67
64141;BME280;50436;50.618;7.932;2024-01-10T02:31:28;97404.31;;;-6.78;64.22
64141;BME280;50436;50.618;7.932;2024-01-10T02:34:14;97405.06;;;-6.76;63.45
64141;BME280;50436;50.618;7.932;2024-01-10T02:37:00;97408.56;;;-6.77;64.84
64141;BME280;50436;50.618;7.932;2024-01-10T02:39:46;97406.72;;;-6.75;65.13
64141;BME280;50436;50.618;7.932;2024-01-10T02:42:32;97394.72;;;-6.78;65.29
64141;BME280;50436;50.618;7.932;2024-01-10T02:45:18;97399.13;;;-6.78;64.99
64141;BME280;50436;50.618;7.932;2024-01-10T02:48:04;97395.81;;;-6.80;66.31
64141;BME280;50436;50.618;7.932;2024-01-10T02:50:50;97392.00;;;-6.87;67.03
64141;BME280;50436;50.618;7.932;2024-01-10T02:53:36;97390.38;;;-6.88;67.72
64141;BME280;50436;50.618;7.932;2024-01-10T02:56:21;97389.19;;;-6.95;68.24
64141;BME280;50436;50.618;7.932;2024-01-10T02:59:07;97392.25;;;-6.90;67.43
64141;BME280;50436;50.618;7.932;2024-01-10T03:01:53;97399.13;;;-6.89;66.56
64141;BME280;50436;50.618;7.932;2024-01-10T03:04:40;97396.53;;;-6.89;68.96
64141;BME280;50436;50.618;7.932;2024-01-10T03:07:25;97395.09;;;-6.93;68.82
64141;BME280;50436;50.618;7.932;2024-01-10T03:10:11;97401.34;;;-6.96;69.10
64141;BME280;50436;50.618;7.932;2024-01-10T03:12:57;97389.19;;;-6.95;69.16
64141;BME280;50436;50.618;7.932;2024-01-10T03:15:43;97395.56;;;-6.99;69.58
64141;BME280;50436;50.618;7.932;2024-01-10T03:18:31;97385.84;;;-7.09;71.66
64141;BME280;50436;50.618;7.932;2024-01-10T03:21:17;97391.41;;;-7.13;72.78
64141;BME280;50436;50.618;7.932;2024-01-10T03:24:08;97378.41;;;-7.13;73.48
64141;BME280;50436;50.618;7.932;2024-01-10T03:26:54;97381.00;;;-7.13;73.70
64141;BME280;50436;50.618;7.932;2024-01-10T03:29:40;97381.69;;;-7.22;74.40
64141;BME280;50436;50.618;7.932;2024-01-10T03:32:26;97383.47;;;-7.23;76.24
64141;BME280;50436;50.618;7.932;2024-01-10T03:35:12;97375.06;;;-7.26;75.67
64141;BME280;50436;50.618;7.932;2024-01-10T03:37:57;97386.53;;;-7.29;78.02
64141;BME280;50436;50.618;7.932;2024-01-10T03:40:43;97378.03;;;-7.31;75.62
64141;BME280;50436;50.618;7.932;2024-01-10T03:43:29;97362.50;;;-7.33;75.43
64141;BME280;50436;50.618;7.932;2024-01-10T03:46:15;97381.34;;;-7.18;76.30
64141;BME280;50436;50.618;7.932;2024-01-10T03:49:01;97369.41;;;-7.20;76.58
64141;BME280;50436;50.618;7.932;2024-01-10T03:51:47;97380.63;;;-7.20;77.04
64141;BME280;50436;50.618;7.932;2024-01-10T03:54:33;97382.28;;;-7.19;75.76
64141;BME280;50436;50.618;7.932;2024-01-10T03:57:19;97384.69;;;-7.16;76.48
64141;BME280;50436;50.618;7.932;2024-01-10T04:00:05;97388.19;;;-7.17;76.49
64141;BME280;50436;50.618;7.932;2024-01-10T04:02:55;97389.59;;;-7.24;77.14
64141;BME280;50436;50.618;7.932;2024-01-10T04:05:41;97390.22;;;-7.20;78.29
64141;BME280;50436;50.618;7.932;2024-01-10T04:08:27;97382.16;;;-7.17;79.11
64141;BME280;50436;50.618;7.932;2024-01-10T04:11:13;97384.41;;;-7.24;78.74
64141;BME280;50436;50.618;7.932;2024-01-10T04:13:59;97383.00;;;-7.17;78.62
64141;BME280;50436;50.618;7.932;2024-01-10T04:16:44;97395.41;;;-7.20;79.67
64141;BME280;50436;50.618;7.932;2024-01-10T04:19:30;97396.47;;;-7.23;80.07
64141;BME280;50436;50.618;7.932;2024-01-10T04:22:16;97384.19;;;-7.21;79.83
64141;BME280;50436;50.618;7.932;2024-01-10T04:25:05;97399.09;;;-7.23;80.63
64141;BME280;50436;50.618;7.932;2024-01-10T04:27:51;97402.13;;;-7.29;81.39
64141;BME280;50436;50.618;7.932;2024-01-10T04:30:37;97380.34;;;-7.39;83.38
64141;BME280;50436;50.618;7.932;2024-01-10T04:33:23;97392.44;;;-7.38;84.68
64141;BME280;50436;50.618;7.932;2024-01-10T04:36:09;97389.00;;;-7.39;86.24
64141;BME280;50436;50.618;7.932;2024-01-10T04:38:55;97406.13;;;-7.36;87.07
64141;BME280;50436;50.618;7.932;2024-01-10T04:41:41;97398.66;;;-7.41;86.81
64141;BME280;50436;50.618;7.932;2024-01-10T04:44:26;97399.03;;;-7.45;88.45
64141;BME280;50436;50.618;7.932;2024-01-10T04:47:12;97404.91;;;-7.54;89.07
64141;BME280;50436;50.618;7.932;2024-01-10T04:49:58;97399.72;;;-7.54;89.91
64141;BME280;50436;50.618;7.932;2024-01-10T04:52:44;97399.59;;;-7.53;89.57
64141;BME280;50436;50.618;7.932;2024-01-10T04:55:30;97393.44;;;-7.52;91.54
64141;BME280;50436;50.618;7.932;2024-01-10T04:58:16;97394.53;;;-7.43;89.73
64141;BME280;50436;50.618;7.932;2024-01-10T05:01:02;97400.41;;;-7.52;91.08
64141;BME280;50436;50.618;7.932;2024-01-10T05:03:48;97384.78;;;-7.64;91.46
64141;BME280;50436;50.618;7.932;2024-01-10T05:06:33;97390.47;;;-7.59;92.31
64141;BME280;50436;50.618;7.932;2024-01-10T05:09:19;97389.31;;;-7.54;93.13
64141;BME280;50436;50.618;7.932;2024-01-10T05:12:05;97397.13;;;-7.54;94.25
64141;BME280;50436;50.618;7.932;2024-01-10T05:14:51;97392.00;;;-7.56;94.83
64141;BME280;50436;50.618;7.932;2024-01-10T05:17:37;97387.88;;;-7.59;96.02
64141;BME280;50436;50.618;7.932;2024-01-10T05:20:23;97389.19;;;-7.53;95.55
64141;BME280;50436;50.618;7.932;2024-01-10T05:23:09;97383.63;;;-7.60;96.30
64141;BME280;50436;50.618;7.932;2024-01-10T05:25:56;97397.94;;;-7.54;95.83
64141;BME280;50436;50.618;7.932;2024-01-10T05:28:42;97392.81;;;-7.55;96.96
64141;BME280;50436;50.618;7.932;2024-01-10T05:31:28;97390.34;;;-7.57;97.83
64141;BME280;50436;50.618;7.932;2024-01-10T05:34:13;97390.41;;;-7.46;97.64
64141;BME280;50436;50.618;7.932;2024-01-10T05:36:59;97393.47;;;-7.41;97.27
64141;BME280;50436;50.618;7.932;2024-01-10T05:39:45;97392.06;;;-7.34;97.50
64141;BME280;50436;50.618;7.932;2024-01-10T05:42:31;97398.34;;;-7.36;99.86
64141;BME280;50436;50.618;7.932;2024-01-10T05:45:18;97392.88;;;-7.44;100.00
64141;BME280;50436;50.618;7.932;2024-01-10T05:48:04;97399.16;;;-7.47;100.00
64141;BME280;50436;50.618;7.932;2024-01-10T05:50:50;97402.53;;;-7.58;100.00
64141;BME280;50436;50.618;7.932;2024-01-10T05:53:36;97395.28;;;-7.65;100.00
64141;BME280;50436;50.618;7.932;2024-01-10T05:56:22;97391.75;;;-7.64;100.00
64141;BME280;50436;50.618;7.932;2024-01-10T05:59:08;97385.69;;;-7.76;100.00
64141;BME280;50436;50.618;7.932;2024-01-10T06:01:57;97384.25;;;-7.80;100.00
64141;BME280;50436;50.618;7.932;2024-01-10T06:04:44;97383.81;;;-7.98;100.00
64141;BME280;50436;50.618;7.932;2024-01-10T06:07:30;97384.22;;;-7.91;100.00
64141;BME280;50436;50.618;7.932;2024-01-10T06:10:16;97387.94;;;-7.95;100.00
64141;BME280;50436;50.618;7.932;2024-01-10T06:13:02;97371.91;;;-7.89;100.00
64141;BME280;50436;50.618;7.932;2024-01-10T06:15:49;97370.72;;;-7.96;100.00
64141;BME280;50436;50.618;7.932;2024-01-10T06:18:36;97371.41;;;-7.94;100.00
64141;BME280;50436;50.618;7.932;2024-01-10T06:21:21;97372.97;;;-7.92;100.00
64141;BME280;50436;50.618;7.932;2024-01-10T06:24:07;97370.28;;;-7.90;100.00
64141;BME280;50436;50.618;7.932;2024-01-10T06:26:53;97374.25;;;-7.97;100.00
64141;BME280;50436;50.618;7.932;2024-01-10T06:29:39;97387.13;;;-7.96;100.00
64141;BME280;50436;50.618;7.932;2024-01-10T06:32:25;97381.50;;;-7.90;100.00
64141;BME280;50436;50.618;7.932;2024-01-10T06:35:11;97378.31;;;-7.93;100.00
64141;BME280;50436;50.618;7.932;2024-01-10T06:37:57;97388.84;;;-8.07;100.00
64141;BME280;50436;50.618;7.932;2024-01-10T06:40:43;97385.25;;;-8.18;100.00
64141;BME280;50436;50.618;7.932;2024-01-10T06:43:30;97382.56;;;-8.16;100.00
64141;BME280;50436;50.618;7.932;2024-01-10T06:46:16;97381.53;;;-8.02;100.00
64141;BME280;50436;50.618;7.932;2024-01-10T06:49:02;97386.09;;;-7.93;100.00
64141;BME280;50436;50.618;7.932;2024-01-10T06:51:48;97375.22;;;-7.87;100.00
64141;BME280;50436;50.618;7.932;2024-01-10T06:54:33;97371.09;;;-7.90;100.00
64141;BME280;50436;50.618;7.932;2024-01-10T06:57:20;97380.34;;;-7.86;100.00
64141;BME280;50436;50.618;7.932;2024-01-10T07:00:07;97384.78;;;-7.88;100.00
64141;BME280;50436;50.618;7.932;2024-01-10T07:02:56;97390.13;;;-7.89;100.00
64141;BME280;50436;50.618;7.932;2024-01-10T07:05:43;97393.41;;;-7.87;100.00
64141;BME280;50436;50.618;7.932;2024-01-10T07:08:30;97399.34;;;-7.85;100.00
64141;BME280;50436;50.618;7.932;2024-01-10T07:11:17;97404.09;;;-7.79;100.00
64141;BME280;50436;50.618;7.932;2024-01-10T07:14:03;97400.94;;;-7.71;100.00
64141;BME280;50436;50.618;7.932;2024-01-10T07:16:49;97398.72;;;-7.65;100.00
64141;BME280;50436;50.618;7.932;2024-01-10T07:19:35;97397.06;;;-7.66;100.00
64141;BME280;50436;50.618;7.932;2024-01-10T07:22:20;97401.53;;;-7.68;100.00
64141;BME280;50436;50.618;7.932;2024-01-10T07:25:12;97409.34;;;-7.68;100.00
64141;BME280;50436;50.618;7.932;2024-01-10T07:27:59;97404.09;;;-7.79;100.00
64141;BME280;50436;50.618;7.932;2024-01-10T07:30:46;97413.22;;;-7.73;100.00
64141;BME280;50436;50.618;7.932;2024-01-10T07:33:32;97417.34;;;-7.71;100.00
64141;BME280;50436;50.618;7.932;2024-01-10T07:36:18;97431.25;;;-7.83;100.00
64141;BME280;50436;50.618;7.932;2024-01-10T07:39:04;97426.56;;;-7.78;100.00
64141;BME280;50436;50.618;7.932;2024-01-10T07:41:50;97431.41;;;-7.73;100.00
64141;BME280;50436;50.618;7.932;2024-01-10T07:44:36;97429.09;;;-7.65;100.00
64141;BME280;50436;50.618;7.932;2024-01-10T07:47:21;97430.25;;;-7.69;100.00
64141;BME280;50436;50.618;7.932;2024-01-10T07:50:08;97432.31;;;-7.62;100.00
64141;BME280;50436;50.618;7.932;2024-01-10T07:52:55;97433.13;;;-7.61;100.00
64141;BME280;50436;50.618;7.932;2024-01-10T07:55:40;97437.78;;;-7.77;100.00
64141;BME280;50436;50.618;7.932;2024-01-10T07:58:28;97440.75;;;-7.71;100.00
64141;BME280;50436;50.618;7.932;2024-01-10T08:01:15;97446.22;;;-7.63;100.00
64141;BME280;50436;50.618;7.932;2024-01-10T08:04:01;97443.84;;;-7.66;100.00
64141;BME280;50436;50.618;7.932;2024-01-10T08:06:46;97445.78;;;-7.80;100.00
64141;BME280;50436;50.618;7.932;2024-01-10T08:09:32;97451.69;;;-7.78;100.00
64141;BME280;50436;50.618;7.932;2024-01-10T08:12:18;97452.31;;;-7.75;100.00
64141;BME280;50436;50.618;7.932;2024-01-10T08:15:05;97457.06;;;-7.69;100.00
64141;BME280;50436;50.618;7.932;2024-01-10T08:17:51;97447.16;;;-7.64;100.00
64141;BME280;50436;50.618;7.932;2024-01-10T08:20:38;97447.78;;;-7.60;100.00
64141;BME280;50436;50.618;7.932;2024-01-10T08:23:24;97443.06;;;-7.55;100.00
64141;BME280;50436;50.618;7.932;2024-01-10T08:26:10;97439.91;;;-7.47;100.00
64141;BME280;50436;50.618;7.932;2024-01-10T08:28:55;97439.75;;;-7.57;100.00
64141;BME280;50436;50.618;7.932;2024-01-10T08:31:42;97444.66;;;-7.41;100.00
64141;BME280;50436;50.618;7.932;2024-01-10T08:34:27;97456.13;;;-7.33;100.00
64141;BME280;50436;50.618;7.932;2024-01-10T08:37:13;97452.25;;;-7.27;100.00
64141;BME280;50436;50.618;7.932;2024-01-10T08:39:59;97449.34;;;-7.22;100.00
64141;BME280;50436;50.618;7.932;2024-01-10T08:42:46;97448.41;;;-7.10;100.00
64141;BME280;50436;50.618;7.932;2024-01-10T08:45:32;97448.53;;;-7.01;100.00
64141;BME280;50436;50.618;7.932;2024-01-10T08:48:18;97451.75;;;-6.86;100.00
64141;BME280;50436;50.618;7.932;2024-01-10T08:51:04;97448.94;;;-6.71;100.00
64141;BME280;50436;50.618;7.932;2024-01-10T08:53:50;97451.19;;;-6.56;100.00
64141;BME280;50436;50.618;7.932;2024-01-10T08:56:36;97452.41;;;-6.37;100.00
64141;BME280;50436;50.618;7.932;2024-01-10T08:59:22;97440.81;;;-6.44;100.00
64141;BME280;50436;50.618;7.932;2024-01-10T09:02:07;97447.28;;;-6.39;100.00
64141;BME280;50436;50.618;7.932;2024-01-10T09:04:53;97450.50;;;-6.35;100.00
64141;BME280;50436;50.618;7.932;2024-01-10T09:07:40;97453.22;;;-6.37;100.00
64141;BME280;50436;50.618;7.932;2024-01-10T09:10:27;97454.38;;;-6.19;100.00
64141;BME280;50436;50.618;7.932;2024-01-10T09:13:13;97452.75;;;-6.20;100.00
64141;BME280;50436;50.618;7.932;2024-01-10T09:15:59;97452.72;;;-6.08;100.00
64141;BME280;50436;50.618;7.932;2024-01-10T09:18:45;97455.31;;;-6.08;100.00
64141;BME280;50436;50.618;7.932;2024-01-10T09:21:31;97458.75;;;-6.08;100.00
64141;BME280;50436;50.618;7.932;2024-01-10T09:24:17;97456.19;;;-5.87;100.00
64141;BME280;50436;50.618;7.932;2024-01-10T09:27:03;97453.34;;;-5.84;100.00
64141;BME280;50436;50.618;7.932;2024-01-10T09:29:48;97452.84;;;-5.67;100.00
64141;BME280;50436;50.618;7.932;2024-01-10T09:32:34;97451.41;;;-5.59;100.00
64141;BME280;50436;50.618;7.932;2024-01-10T09:35:20;97458.50;;;-5.62;100.00
64141;BME280;50436;50.618;7.932;2024-01-10T09:38:06;97462.66;;;-5.59;100.00
64141;BME280;50436;50.618;7.932;2024-01-10T09:40:59;97452.88;;;-5.46;100.00
64141;BME280;50436;50.618;7.932;2024-01-10T09:43:47;97455.88;;;-5.62;100.00
64141;BME280;50436;50.618;7.932;2024-01-10T09:46:34;97469.88;;;-5.63;100.00
64141;BME280;50436;50.618;7.932;2024-01-10T09:49:21;97454.72;;;-5.69;100.00
64141;BME280;50436;50.618;7.932;2024-01-10T09:52:10;97461.22;;;-5.31;100.00
64141;BME280;50436;50.618;7.932;2024-01-10T09:54:57;97466.31;;;-5.29;100.00
64141;BME280;50436;50.618;7.932;2024-01-10T09:57:43;97458.94;;;-5.24;100.00
64141;BME280;50436;50.618;7.932;2024-01-10T10:00:29;97464.38;;;-4.95;98.98
64141;BME280;50436;50.618;7.932;2024-01-10T10:03:17;97450.19;;;-5.02;99.13
64141;BME280;50436;50.618;7.932;2024-01-10T10:06:04;97468.47;;;-4.82;98.03
64141;BME280;50436;50.618;7.932;2024-01-10T10:08:50;97456.47;;;-4.63;97.11
64141;BME280;50436;50.618;7.932;2024-01-10T10:11:36;97459.34;;;-3.96;95.21
64141;BME280;50436;50.618;7.932;2024-01-10T10:14:22;97456.56;;;-3.15;87.42
64141;BME280;50436;50.618;7.932;2024-01-10T10:17:17;97449.75;;;-2.79;78.92
64141;BME280;50436;50.618;7.932;2024-01-10T10:20:03;97449.06;;;-2.25;73.76
64141;BME280;50436;50.618;7.932;2024-01-10T10:23:06;97443.22;;;-1.91;68.86
64141;BME280;50436;50.618;7.932;2024-01-10T10:25:52;97441.69;;;-1.48;64.31
64141;BME280;50436;50.618;7.932;2024-01-10T10:28:37;97436.53;;;-0.61;59.06
64141;BME280;50436;50.618;7.932;2024-01-10T10:31:25;97429.19;;;1.82;49.34
64141;BME280;50436;50.618;7.932;2024-01-10T10:34:11;97424.75;;;3.74;43.62
64141;BME280;50436;50.618;7.932;2024-01-10T10:36:56;97414.81;;;5.77;40.41
64141;BME280;50436;50.618;7.932;2024-01-10T10:39:42;97422.31;;;4.53;37.69
64141;BME280;50436;50.618;7.932;2024-01-10T10:42:28;97422.56;;;3.78;38.85
64141;BME280;50436;50.618;7.932;2024-01-10T10:45:17;97423.88;;;2.61;40.36
64141;BME280;50436;50.618;7.932;2024-01-10T10:48:05;97414.03;;;1.76;42.83
64141;BME280;50436;50.618;7.932;2024-01-10T10:53:52;97440.34;;;0.88;44.35
64141;BME280;50436;50.618;7.932;2024-01-10T10:56:40;97421.41;;;1.25;43.17
64141;BME280;50436;50.618;7.932;2024-01-10T10:59:27;97426.97;;;2.02;41.46
64141;BME280;50436;50.618;7.932;2024-01-10T11:02:16;97426.38;;;2.23;41.60
64141;BME280;50436;50.618;7.932;2024-01-10T11:05:07;97414.94;;;2.00;40.74
64141;BME280;50436;50.618;7.932;2024-01-10T11:07:54;97407.56;;;1.07;43.26
64141;BME280;50436;50.618;7.932;2024-01-10T11:10:43;97419.34;;;1.60;43.57
64141;BME280;50436;50.618;7.932;2024-01-10T11:13:56;97415.81;;;0.88;43.07
64141;BME280;50436;50.618;7.932;2024-01-10T11:17:19;97409.63;;;0.30;44.81
64141;BME280;50436;50.618;7.932;2024-01-10T11:20:29;97400.31;;;0.93;44.05
64141;BME280;50436;50.618;7.932;2024-01-10T11:26:08;97407.25;;;0.03;46.89
64141;BME280;50436;50.618;7.932;2024-01-10T11:28:56;97413.44;;;-0.15;47.88
64141;BME280;50436;50.618;7.932;2024-01-10T11:31:50;97407.69;;;-0.96;51.57
64141;BME280;50436;50.618;7.932;2024-01-10T11:34:36;97394.94;;;-1.80;53.84
64141;BME280;50436;50.618;7.932;2024-01-10T11:37:22;97406.84;;;-2.31;57.05
64141;BME280;50436;50.618;7.932;2024-01-10T11:40:09;97406.66;;;-2.20;59.69
64141;BME280;50436;50.618;7.932;2024-01-10T11:42:58;97419.84;;;-2.39;61.41
64141;BME280;50436;50.618;7.932;2024-01-10T11:45:51;97416.16;;;-2.93;66.79
64141;BME280;50436;50.618;7.932;2024-01-10T11:48:38;97416.69;;;-2.90;66.98
64141;BME280;50436;50.618;7.932;2024-01-10T11:51:25;97409.13;;;-3.02;70.06
64141;BME280;50436;50.618;7.932;2024-01-10T11:54:11;97415.19;;;-3.02;69.69
64141;BME280;50436;50.618;7.932;2024-01-10T11:56:56;97413.63;;;-2.38;67.20
64141;BME280;50436;50.618;7.932;2024-01-10T11:59:43;97410.03;;;-2.37;64.67
64141;BME280;50436;50.618;7.932;2024-01-10T12:02:31;97406.38;;;-2.17;63.88
64141;BME280;50436;50.618;7.932;2024-01-10T12:05:18;97401.00;;;-1.98;62.99
64141;BME280;50436;50.618;7.932;2024-01-10T12:08:10;97422.81;;;-1.52;61.69
64141;BME280;50436;50.618;7.932;2024-01-10T12:11:05;97416.16;;;-1.91;64.29
64141;BME280;50436;50.618;7.932;2024-01-10T12:13:51;97414.09;;;-2.15;64.27
64141;BME280;50436;50.618;7.932;2024-01-10T12:16:37;97407.22;;;-1.99;63.35
64141;BME280;50436;50.618;7.932;2024-01-10T12:19:24;97410.88;;;-2.09;63.51
64141;BME280;50436;50.618;7.932;2024-01-10T12:22:10;97407.25;;;-2.63;68.71
64141;BME280;50436;50.618;7.932;2024-01-10T12:24:56;97412.72;;;-2.47;69.29
64141;BME280;50436;50.618;7.932;2024-01-10T12:27:42;97407.50;;;-2.57;71.94
64141;BME280;50436;50.618;7.932;2024-01-10T12:30:27;97413.91;;;-2.88;75.46
64141;BME280;50436;50.618;7.932;2024-01-10T12:33:14;97410.22;;;-2.95;78.26
64141;BME280;50436;50.618;7.932;2024-01-10T12:36:12;97416.16;;;-2.93;77.35
64141;BME280;50436;50.618;7.932;2024-01-10T12:38:58;97404.53;;;-2.91;75.03
64141;BME280;50436;50.618;7.932;2024-01-10T12:41:44;97416.91;;;-2.73;77.28
64141;BME280;50436;50.618;7.932;2024-01-10T12:44:31;97412.34;;;-2.62;73.70
64141;BME280;50436;50.618;7.932;2024-01-10T12:47:20;97405.00;;;-2.95;76.59
64141;BME280;50436;50.618;7.932;2024-01-10T12:50:07;97404.31;;;-3.36;81.26
64141;BME280;50436;50.618;7.932;2024-01-10T12:52:53;97415.06;;;-3.20;81.38
64141;BME280;50436;50.618;7.932;2024-01-10T12:55:39;97410.09;;;-3.13;82.30
64141;BME280;50436;50.618;7.932;2024-01-10T12:58:25;97408.06;;;-2.63;78.65
64141;BME280;50436;50.618;7.932;2024-01-10T13:01:11;97401.75;;;-2.70;80.88
64141;BME280;50436;50.618;7.932;2024-01-10T13:03:57;97399.72;;;-2.86;79.10
64141;BME280;50436;50.618;7.932;2024-01-10T13:06:44;97390.16;;;-2.67;77.04
64141;BME280;50436;50.618;7.932;2024-01-10T13:09:29;97401.72;;;-2.60;79.39
64141;BME280;50436;50.618;7.932;2024-01-10T13:12:15;97408.03;;;-2.53;75.41
64141;BME280;50436;50.618;7.932;2024-01-10T13:15:01;97407.13;;;-2.71;75.73
64141;BME280;50436;50.618;7.932;2024-01-10T13:17:47;97405.13;;;-2.50;78.63
64141;BME280;50436;50.618;7.932;2024-01-10T13:20:33;97419.91;;;-2.49;75.81
64141;BME280;50436;50.618;7.932;2024-01-10T13:23:19;97420.72;;;-2.58;78.09
64141;BME280;50436;50.618;7.932;2024-01-10T13:26:06;97421.31;;;-2.64;77.38
64141;BME280;50436;50.618;7.932;2024-01-10T13:28:52;97416.41;;;-2.87;80.33
64141;BME280;50436;50.618;7.932;2024-01-10T13:31:38;97418.97;;;-2.67;80.42
64141;BME280;50436;50.618;7.932;2024-01-10T13:34:25;97418.78;;;-2.19;76.83
64141;BME280;50436;50.618;7.932;2024-01-10T13:37:11;97412.91;;;-2.31;77.00
64141;BME280;50436;50.618;7.932;2024-01-10T13:39:58;97418.88;;;-2.38;77.77
64141;BME280;50436;50.618;7.932;2024-01-10T13:42:45;97423.09;;;-2.65;80.46
64141;BME280;50436;50.618;7.932;2024-01-10T13:45:31;97420.91;;;-2.69;81.34
64141;BME280;50436;50.618;7.932;2024-01-10T13:48:16;97425.91;;;-2.86;84.14
64141;BME280;50436;50.618;7.932;2024-01-10T13:51:02;97431.25;;;-2.68;85.87
64141;BME280;50436;50.618;7.932;2024-01-10T13:53:48;97429.03;;;-2.63;84.24
64141;BME280;50436;50.618;7.932;2024-01-10T13:56:34;97420.81;;;-2.77;86.16
64141;BME280;50436;50.618;7.932;2024-01-10T13:59:20;97416.28;;;-3.04;88.99
64141;BME280;50436;50.618;7.932;2024-01-10T14:02:06;97425.09;;;-3.05;89.18
64141;BME280;50436;50.618;7.932;2024-01-10T14:04:52;97421.66;;;-3.06;90.30
64141;BME280;50436;50.618;7.932;2024-01-10T14:07:45;97427.44;;;-2.93;91.23
64141;BME280;50436;50.618;7.932;2024-01-10T14:10:32;97421.47;;;-2.75;88.99
64141;BME280;50436;50.618;7.932;2024-01-10T14:13:17;97426.88;;;-2.87;90.56
64141;BME280;50436;50.618;7.932;2024-01-10T14:16:04;97427.31;;;-2.44;86.53
64141;BME280;50436;50.618;7.932;2024-01-10T14:18:50;97426.50;;;-2.45;86.63
64141;BME280;50436;50.618;7.932;2024-01-10T14:21:36;97428.19;;;-2.26;86.32
64141;BME280;50436;50.618;7.932;2024-01-10T14:24:21;97426.84;;;-2.30;87.37
64141;BME280;50436;50.618;7.932;2024-01-10T14:27:07;97430.75;;;-2.07;83.12
64141;BME280;50436;50.618;7.932;2024-01-10T14:29:53;97431.25;;;-1.93;80.93
64141;BME280;50436;50.618;7.932;2024-01-10T14:32:39;97424.13;;;-1.83;81.65
64141;BME280;50436;50.618;7.932;2024-01-10T14:35:25;97432.25;;;-2.32;86.81
64141;BME280;50436;50.618;7.932;2024-01-10T14:38:11;97431.31;;;-2.50;86.93
64141;BME280;50436;50.618;7.932;2024-01-10T14:40:57;97432.63;;;-2.64;90.06
64141;BME280;50436;50.618;7.932;2024-01-10T14:43:44;97428.91;;;-2.71;91.54
64141;BME280;50436;50.618;7.932;2024-01-10T14:46:30;97433.66;;;-2.94;94.40